Terminal Aerodrome Forecast
Issued by NWS

Home | Current Version | Previous Version | Text Only | Print | Product List | Glossary On
Versions: 1 2 3 4 5 6 7 8 9 10 11 12 13 14 15 16
000
FTUS42 KTBW 302000 AAA
TAFRSW
TAF AMD
KRSW 302021Z 3020/3118 13008KT P6SM VCTS SCT035CB BKN100 BKN250
      TEMPO 3020/3022 VRB15G25KT 4SM TSRA BKN025CB
     FM310200 12004KT P6SM FEW025 BKN250
     FM311400 12009KT P6SM SCT025 BKN250=

USA.gov is the U.S. government's official web portal to all federal, state and local government web resources and services.